Date,TemperatureHighF,TemperatureAvgF,TemperatureLowF,DewpointHighF,DewpointAvgF,DewpointLowF,HumidityHigh,HumidityAvg,HumidityLow,PressureMaxIn,PressureMinIn,WindSpeedMaxMPH,WindSpeedAvgMPH,GustSpeedMaxMPH,PrecipitationSumIn
2013-1-1,50.7,49.0,44.2,47.4,46.0,26.3,93,90,49,29.96,29.77,0,0,0,0.00
2013-1-2,48.9,44.6,39.7,47.0,37.6,33.9,93,77,68,29.95,29.79,0,0,0,0.00
2013-1-3,50.2,40.9,35.6,36.1,32.0,24.3,89,71,51,30.07,29.91,0,0,0,0.00
2013-1-4,48.0,43.2,30.6,28.2,19.9,10.8,72,41,23,30.16,30.08,0,0,0,0.00
2013-1-5,49.6,40.7,26.2,28.9,26.0,20.5,81,58,43,30.17,30.06,0,0,0,0.00
2013-1-6,52.3,43.1,38.8,44.0,37.3,32.6,95,81,62,30.06,29.92,0,0,0,0.00
2013-1-7,54.7,41.8,29.1,33.3,29.7,25.5,86,64,38,30.18,30.04,0,0,0,0.00
2013-1-8,51.8,47.9,37.2,41.3,37.2,29.4,76,66,59,30.22,30.12,0,0,0,0.00
2013-1-9,68.2,61.0,48.4,57.7,54.6,42.5,93,80,67,30.26,30.18,0,0,0,0.00
2013-1-10,57.6,55.7,53.6,53.1,52.5,51.6,93,89,85,30.25,30.24,0,0,0,0.00
2013-1-13,68.4,65.3,61.5,63.3,60.7,59.0,100,85,77,29.92,29.86,7,3,9,0.53
2013-1-14,63.0,61.1,59.9,63.0,59.8,57.9,100,96,93,29.93,29.88,7,2,11,0.61
2013-1-17,55.9,49.9,36.0,54.0,47.5,31.3,95,91,83,30.01,29.49,14,3,14,1.89
2013-1-18,54.9,40.4,30.2,33.3,24.9,15.6,87,59,22,30.26,30.03,5,1,5,0.00
2013-1-19,53.2,39.0,28.4,32.3,25.6,19.8,86,62,27,30.24,30.02,5,1,5,0.00
2013-1-20,60.6,45.4,30.9,32.9,27.0,22.0,83,53,23,30.01,29.88,11,3,11,0.00
2013-1-21,54.5,42.9,34.2,29.6,20.3,7.9,76,44,20,29.93,29.85,12,5,12,0.00
2013-1-22,41.7,32.5,26.1,10.4,2.5,-4.7,39,29,16,30.05,29.90,21,10,21,0.00
2013-1-23,50.2,44.0,37.2,29.7,19.6,2.3,60,39,22,30.11,29.94,14,6,14,0.00
2013-1-24,47.7,40.8,33.4,37.3,-5.2,-13.4,67,15,10,30.12,29.90,17,7,23,0.00
2013-1-25,33.4,27.7,25.9,24.1,14.8,-2.6,79,59,25,30.20,29.94,14,3,14,0.00
2013-1-26,54.9,48.3,39.7,36.2,10.6,-2.7,87,28,10,30.00,29.90,12,8,16,0.12
2013-1-27,50.4,47.3,33.8,33.4,31.6,22.6,63,54,49,30.25,30.10,12,6,16,0.12
2013-1-28,50.5,45.6,41.7,46.3,39.5,30.8,86,79,59,30.22,30.10,4,1,6,0.12
2013-1-29,65.8,58.7,42.3,60.4,56.4,42.3,100,92,82,30.10,29.84,6,1,8,0.43
2013-1-30,65.5,58.7,44.1,63.9,58.3,41.4,100,98,90,29.74,29.38,18,9,28,2.91
2013-1-31,45.7,39.3,32.2,41.4,23.6,18.7,91,54,36,29.91,29.52,17,8,27,2.92
2013-2-1,39.7,32.8,27.0,29.4,9.7,-6.0,71,41,17,30.12,29.85,17,8,23,2.92
2013-2-2,44.8,36.8,24.6,33.1,20.8,1.4,95,60,19,30.12,29.91,8,2,11,2.94
2013-2-3,48.9,43.8,33.4,37.8,32.3,25.8,95,66,44,29.91,29.76,17,9,22,3.26
2013-2-4,50.5,41.3,30.9,31.2,26.5,21.7,79,57,37,29.93,29.81,6,2,10,3.26
2013-2-5,61.9,53.3,34.5,47.0,42.4,28.7,82,68,45,29.82,29.75,12,6,16,0.00
2013-2-6,65.8,57.1,42.3,44.8,26.6,19.0,94,35,17,29.97,29.79,8,4,12,0.00
2013-2-7,50.7,47.6,43.5,46.4,42.3,26.5,94,83,39,29.97,29.76,12,7,19,0.12
2013-2-8,52.9,48.0,44.1,49.1,45.9,43.4,99,93,76,29.82,29.75,10,3,19,0.02
2013-2-9,62.8,58.3,51.4,30.8,19.2,14.5,45,22,17,30.08,30.00,6,4,8,0.02
2013-2-10,51.8,45.3,43.0,29.4,26.0,15.2,52,47,23,30.14,30.05,11,5,16,0.02
2013-2-11,56.5,51.7,46.0,56.5,49.2,42.4,100,91,78,29.94,29.83,6,3,8,0.48
2013-2-12,56.7,44.8,43.7,43.5,37.3,26.1,96,77,34,29.91,29.68,8,4,13,0.25
2013-2-13,49.1,43.1,36.9,47.0,40.3,31.0,98,90,76,29.73,29.55,13,5,19,0.02
2013-2-14,57.7,46.7,33.8,36.7,31.5,27.2,85,58,36,29.85,28.45,14,6,18,0.00
2013-2-15,63.0,49.8,29.5,41.3,34.6,28.0,96,61,29,29.91,29.78,14,5,20,0.00
2013-2-16,44.2,36.5,35.1,37.2,24.5,10.8,76,62,32,29.82,29.74,13,8,21,0.00
2013-2-17,41.4,34.1,24.4,11.9,6.4,-0.3,50,32,20,30.02,29.74,15,8,22,0.00
2013-2-18,57.6,49.9,25.7,26.3,23.0,9.8,66,36,26,30.13,29.99,10,5,14,0.00
2013-2-19,55.2,50.8,42.3,46.3,32.4,21.9,86,51,29,29.99,29.77,17,10,27,0.25
2013-2-20,53.6,47.9,34.0,23.0,6.3,-0.1,43,18,17,29.93,29.83,12,8,22,0.25
2013-2-21,63.5,56.7,31.1,37.5,19.5,3.7,77,26,17,29.93,29.78,9,5,13,0.37
2013-2-22,41.4,39.3,38.1,39.9,38.0,36.6,96,95,93,29.98,29.91,12,8,16,0.57
2013-2-23,50.2,46.5,41.5,48.5,45.8,41.3,100,97,94,29.80,29.66,4,1,8,1.26
2013-2-24,63.1,49.4,43.0,45.4,33.7,17.9,100,62,18,29.81,29.70,15,6,15,0.00
2013-2-25,62.2,44.4,37.0,37.2,29.9,19.5,95,60,19,29.78,29.72,25,9,25,0.00
2013-2-26,42.8,38.5,37.0,42.3,37.7,36.2,98,97,95,29.69,29.43,19,9,19,0.25
2013-2-27,39.4,39.4,39.4,34.7,34.6,34.4,83,83,82,29.58,29.57,6,5,9,0.26
2013-2-28,43.5,38.0,34.0,33.7,27.5,24.3,72,66,58,29.77,29.62,19,7,19,0.00
2013-3-1,39.6,36.0,33.3,29.9,27.6,24.9,80,72,63,29.77,29.72,14,6,14,0.00
2013-3-2,38.8,34.8,30.4,29.7,26.5,20.4,81,72,57,29.79,29.69,16,7,16,0.00
2013-3-3,37.9,31.3,26.4,20.2,17.3,14.5,68,56,43,29.84,29.75,16,8,16,0.00
2013-3-4,62.1,43.2,29.1,27.0,19.6,9.8,60,41,22,29.93,29.83,12,5,12,0.00
2013-3-5,53.6,48.2,39.2,51.0,43.8,27.2,99,85,58,29.87,29.47,21,5,30,0.27
2013-3-6,46.2,33.3,29.8,37.0,25.7,18.1,79,74,56,29.92,29.62,18,10,30,0.27
2013-3-7,61.2,49.8,30.4,32.5,29.0,24.6,85,47,26,30.02,29.91,12,6,17,0.27
2013-3-8,66.6,52.8,27.7,29.9,19.6,12.4,82,34,17,30.09,29.97,9,4,14,0.27
2013-3-9,63.5,58.9,46.9,28.8,26.4,20.7,39,29,21,30.10,30.02,8,4,11,0.27
2013-3-10,67.5,64.7,51.6,34.0,31.1,27.9,40,28,24,30.04,29.93,13,10,17,0.27
2013-3-11,58.3,54.9,51.8,54.4,51.7,47.8,100,89,80,29.89,29.64,11,7,15,1.42
2013-3-12,58.5,52.8,45.3,54.0,31.3,22.2,99,46,27,29.88,29.62,14,5,20,0.05
2013-3-13,52.5,44.3,34.5,29.8,24.0,16.0,72,48,26,29.93,29.87,13,4,21,0.00
2013-3-14,54.0,46.1,27.3,21.9,11.6,2.4,64,27,17,30.11,29.91,14,4,21,0.00
2013-3-15,72.7,55.4,36.5,41.4,35.4,21.9,80,50,27,30.01,29.78,12,3,24,0.00
2013-3-16,77.2,64.1,54.5,46.2,41.6,37.1,62,45,28,29.80,29.69,14,4,24,0.00
2013-3-17,75.6,62.6,50.4,53.8,46.7,41.1,79,57,41,29.81,29.72,9,3,15,0.00
2013-3-18,59.0,49.1,44.4,53.3,46.5,43.4,100,91,64,29.84,29.63,10,2,14,0.37
2013-3-19,61.2,48.3,41.7,48.9,36.7,14.1,100,71,22,29.89,29.69,11,2,17,0.00
2013-3-20,61.3,49.5,38.7,30.3,15.5,6.5,70,29,17,29.89,29.69,15,4,22,0.00
2013-3-21,44.6,35.7,26.8,29.7,12.4,-0.3,70,43,17,29.73,29.67,14,6,22,0.00
2013-3-22,54.0,37.2,32.9,25.6,18.1,7.9,55,46,29,29.83,29.71,4,1,7,0.00
2013-3-23,57.7,48.3,43.2,50.5,42.1,26.2,97,80,34,29.79,29.63,9,2,14,0.43
2013-3-24,52.2,48.8,46.8,48.8,47.3,46.4,100,95,83,29.65,29.39,8,3,11,0.83
2013-3-25,37.0,36.0,35.2,28.5,27.8,25.4,75,72,68,29.50,29.48,12,6,22,0.86
2013-3-26,39.2,34.2,30.6,25.3,23.7,21.4,76,66,53,30.02,29.77,13,5,24,0.00
2013-3-27,52.5,40.5,31.3,25.0,20.6,14.7,71,48,23,30.08,30.00,10,4,19,0.00
2013-3-28,58.8,44.6,31.6,27.6,20.9,9.4,67,43,17,30.09,30.00,11,4,20,0.00
2013-3-29,63.9,48.0,32.2,34.7,27.3,19.7,73,48,21,30.13,29.99,5,1,11,0.00
2013-3-30,72.7,56.6,44.8,53.4,41.1,36.4,94,60,28,30.00,29.84,5,2,10,0.28
2013-3-31,68.5,58.4,53.8,59.1,55.2,53.1,100,90,64,29.85,29.69,6,2,9,0.83
2013-4-1,69.3,58.9,46.9,55.8,42.3,35.5,100,57,29,29.85,29.68,10,4,16,0.00
2013-4-2,66.6,53.7,43.0,36.9,23.7,9.9,64,35,17,29.96,29.84,9,3,17,0.00
2013-4-3,62.8,53.8,44.4,40.3,27.5,17.8,74,38,21,30.01,29.88,9,2,14,0.01
2013-4-4,47.8,42.6,38.1,42.7,38.2,32.8,97,85,61,30.00,29.75,11,3,24,0.47
2013-4-5,66.4,52.7,41.5,49.5,38.1,19.3,98,65,17,29.88,29.72,11,3,20,0.00
2013-4-6,74.1,58.0,40.3,41.8,33.4,28.0,76,44,20,30.01,29.88,11,2,14,0.00
2013-4-7,75.2,60.8,42.3,49.0,41.6,32.5,79,51,32,30.03,29.90,8,2,11,0.00
2013-4-8,61.3,58.2,56.8,51.4,47.7,44.3,76,68,56,29.96,29.89,3,1,7,0.00
2013-4-10,93.6,80.8,69.1,61.0,55.8,51.5,72,44,25,29.93,29.75,9,3,12,0.00
2013-4-11,79.9,71.0,61.7,66.9,60.0,54.3,97,69,50,29.76,29.50,11,3,20,0.01
2013-4-12,72.0,63.3,51.6,63.1,49.5,31.8,99,66,26,29.71,29.46,10,3,16,0.00
2013-4-13,76.6,62.4,52.5,39.1,32.4,22.9,58,36,17,29.82,29.69,12,4,21,0.00
2013-4-14,64.9,57.2,46.9,53.8,42.6,32.8,98,61,33,29.86,29.74,8,2,16,0.01
2013-4-15,77.5,63.9,54.0,61.2,56.8,53.1,99,80,52,29.96,29.73,8,2,10,0.00
2013-4-16,80.8,68.8,60.8,64.7,60.6,57.3,96,77,52,30.06,29.95,5,2,8,0.00
2013-4-17,87.6,72.1,63.1,66.2,62.4,59.8,96,74,46,30.03,29.88,10,3,18,0.01
2013-4-18,79.9,69.9,61.9,64.5,60.9,-10.1,98,76,50,29.90,29.73,11,4,18,0.00
2013-4-19,68.9,60.3,45.5,65.8,55.7,34.8,99,85,66,29.78,29.56,11,5,21,0.73
2013-4-20,63.7,51.4,40.6,36.0,26.8,17.1,71,42,17,30.00,29.77,12,6,17,0.00
2013-4-21,68.9,57.3,46.0,38.2,32.3,26.2,64,40,23,30.13,30.00,12,5,21,0.00
2013-4-22,73.4,55.1,47.7,42.7,38.8,36.0,70,56,28,30.11,29.94,8,4,13,0.00
2013-4-23,77.4,63.9,41.9,47.6,42.1,33.1,80,48,28,30.01,29.87,6,2,9,0.00
2013-4-24,73.4,60.8,51.8,61.5,54.8,46.9,97,82,57,29.91,29.85,9,2,11,0.12
2013-4-25,72.3,60.1,42.1,53.2,33.3,16.0,95,46,17,30.07,29.88,9,4,13,0.00
2013-4-26,77.5,60.6,43.9,48.9,34.3,24.3,70,40,20,30.17,30.03,9,2,16,0.02
2013-4-27,60.4,55.5,53.2,54.0,51.8,47.3,97,88,70,30.14,29.97,6,1,10,0.97
2013-4-28,55.8,54.2,52.0,55.8,54.0,51.7,100,99,97,30.01,29.81,6,1,12,3.15
2013-4-29,75.6,62.2,54.1,62.8,55.5,50.4,100,82,46,29.84,29.72,5,2,7,0.01
2013-4-30,80.1,66.6,49.1,61.9,56.0,48.0,98,72,46,29.92,29.76,6,2,8,0.00
2013-5-1,71.4,65.5,59.2,59.3,55.4,53.0,89,71,55,30.00,29.91,10,4,12,0.00
2013-5-2,65.3,60.6,58.6,58.8,55.9,54.0,91,84,76,30.00,29.93,7,4,13,0.00
2013-5-3,61.0,57.6,55.4,56.6,55.4,51.9,99,93,73,29.95,29.80,9,5,14,0.00
2013-5-4,57.4,52.5,49.1,54.2,50.7,45.3,100,94,70,29.80,29.65,11,6,20,0.02
2013-5-5,57.4,53.2,48.2,56.0,52.8,48.2,100,99,93,29.66,29.56,12,4,19,0.00
2013-5-6,54.1,49.7,45.9,52.7,49.0,45.3,100,97,93,29.70,29.57,2,0,4,0.00
2013-5-7,72.1,57.8,49.1,58.3,52.3,46.3,100,84,48,29.76,29.65,6,1,8,0.00
2013-5-8,75.0,61.7,49.5,60.9,54.6,48.8,99,80,51,29.86,29.73,7,1,11,0.00
2013-5-9,83.3,65.6,52.5,64.6,57.5,52.1,100,79,43,29.92,29.82,8,1,8,0.00
2013-5-10,77.7,64.6,52.2,64.8,58.4,39.1,98,82,57,29.90,29.76,6,1,7,0.74
2013-5-11,75.7,65.0,59.4,66.8,62.1,58.3,100,91,63,29.81,29.68,6,1,8,0.00
2013-5-12,67.8,60.8,50.4,58.4,36.4,19.7,97,44,19,29.89,29.71,8,5,12,0.00
2013-5-13,67.5,55.1,42.6,41.4,32.4,19.4,78,47,17,29.99,29.87,9,3,15,0.00
2013-5-14,80.4,60.9,41.2,53.7,45.8,36.6,88,61,34,30.04,29.89,6,2,8,0.00
2013-5-15,90.0,72.3,58.8,56.9,53.5,44.1,83,57,24,29.94,29.82,8,2,11,0.00
2013-5-16,84.2,69.3,58.6,65.5,60.1,54.9,90,74,45,29.89,29.79,4,1,6,0.85
2013-5-17,79.0,74.7,57.6,65.8,64.1,56.4,97,70,62,29.91,29.83,3,1,3,0.00
2013-5-18,78.6,78.6,78.6,65.0,65.0,65.0,63,63,63,29.91,29.85,2,2,2,0.00